sensor_id;sensor_type;location;lat;lon;timestamp;pressure;altitude;pressure_sealevel;temperature;humidity
56270;BME280;42176;43.240;27.880;2023-07-31T00:00:19;99525.47;;;20.71;100.00
56270;BME280;42176;43.240;27.880;2023-07-31T00:02:19;99521.09;;;20.70;100.00
56270;BME280;42176;43.240;27.880;2023-07-31T00:04:19;99527.56;;;20.67;100.00
56270;BME280;42176;43.240;27.880;2023-07-31T00:06:20;99519.47;;;20.67;100.00
56270;BME280;42176;43.240;27.880;2023-07-31T00:08:20;99519.59;;;20.66;100.00
56270;BME280;42176;43.240;27.880;2023-07-31T00:10:21;99513.47;;;20.64;100.00
56270;BME280;42176;43.240;27.880;2023-07-31T00:12:22;99512.72;;;20.62;100.00
56270;BME280;42176;43.240;27.880;2023-07-31T00:14:23;99518.97;;;20.62;100.00
56270;BME280;42176;43.240;27.880;2023-07-31T00:16:24;99511.34;;;20.56;100.00
56270;BME280;42176;43.240;27.880;2023-07-31T00:18:24;99514.88;;;20.57;100.00
56270;BME280;42176;43.240;27.880;2023-07-31T00:20:25;99523.69;;;20.59;100.00
56270;BME280;42176;43.240;27.880;2023-07-31T00:22:25;99515.13;;;20.53;100.00
56270;BME280;42176;43.240;27.880;2023-07-31T00:24:26;99535.22;;;20.61;100.00
56270;BME280;42176;43.240;27.880;2023-07-31T00:26:26;99523.59;;;20.60;100.00
56270;BME280;42176;43.240;27.880;2023-07-31T00:28:27;99534.47;;;20.59;100.00
56270;BME280;42176;43.240;27.880;2023-07-31T00:30:28;99526.50;;;20.57;100.00
56270;BME280;42176;43.240;27.880;2023-07-31T00:32:29;99525.63;;;20.57;100.00
56270;BME280;42176;43.240;27.880;2023-07-31T00:34:30;99526.75;;;20.54;100.00
56270;BME280;42176;43.240;27.880;2023-07-31T00:36:30;99522.44;;;20.51;100.00
56270;BME280;42176;43.240;27.880;2023-07-31T00:38:31;99528.06;;;20.48;100.00
56270;BME280;42176;43.240;27.880;2023-07-31T00:40:35;99523.63;;;20.47;100.00
56270;BME280;42176;43.240;27.880;2023-07-31T00:42:36;99523.84;;;20.44;100.00
56270;BME280;42176;43.240;27.880;2023-07-31T00:44:36;99524.59;;;20.46;100.00
56270;BME280;42176;43.240;27.880;2023-07-31T00:46:37;99524.59;;;20.46;100.00
56270;BME280;42176;43.240;27.880;2023-07-31T00:48:38;99527.44;;;20.45;100.00
56270;BME280;42176;43.240;27.880;2023-07-31T00:50:39;99520.41;;;20.42;100.00
56270;BME280;42176;43.240;27.880;2023-07-31T00:52:40;99531.66;;;20.36;100.00
56270;BME280;42176;43.240;27.880;2023-07-31T00:54:40;99531.75;;;20.34;100.00
56270;BME280;42176;43.240;27.880;2023-07-31T00:56:41;99530.34;;;20.29;100.00
56270;BME280;42176;43.240;27.880;2023-07-31T00:58:44;99530.69;;;20.24;100.00
56270;BME280;42176;43.240;27.880;2023-07-31T01:00:44;99534.47;;;20.21;100.00
56270;BME280;42176;43.240;27.880;2023-07-31T01:02:45;99532.75;;;20.20;100.00
56270;BME280;42176;43.240;27.880;2023-07-31T01:04:46;99530.91;;;20.21;100.00
56270;BME280;42176;43.240;27.880;2023-07-31T01:11:25;99523.81;;;20.20;100.00
56270;BME280;42176;43.240;27.880;2023-07-31T01:13:26;99526.41;;;20.21;100.00
56270;BME280;42176;43.240;27.880;2023-07-31T01:15:27;99531.78;;;20.21;100.00
56270;BME280;42176;43.240;27.880;2023-07-31T01:17:28;99519.50;;;20.17;100.00
56270;BME280;42176;43.240;27.880;2023-07-31T01:19:28;99524.69;;;20.20;100.00
56270;BME280;42176;43.240;27.880;2023-07-31T01:30:55;99538.88;;;20.22;100.00
56270;BME280;42176;43.240;27.880;2023-07-31T01:32:59;99537.38;;;20.18;100.00
56270;BME280;42176;43.240;27.880;2023-07-31T01:34:59;99547.19;;;20.19;100.00
56270;BME280;42176;43.240;27.880;2023-07-31T01:37:00;99547.38;;;20.16;100.00
56270;BME280;42176;43.240;27.880;2023-07-31T01:39:01;99550.28;;;20.13;100.00
56270;BME280;42176;43.240;27.880;2023-07-31T01:41:02;99555.03;;;20.10;100.00
56270;BME280;42176;43.240;27.880;2023-07-31T01:43:03;99543.09;;;20.01;100.00
56270;BME280;42176;43.240;27.880;2023-07-31T01:45:03;99552.69;;;20.05;100.00
56270;BME280;42176;43.240;27.880;2023-07-31T01:47:04;99545.56;;;20.04;100.00
56270;BME280;42176;43.240;27.880;2023-07-31T01:49:05;99557.19;;;20.04;100.00
56270;BME280;42176;43.240;27.880;2023-07-31T01:51:06;99548.28;;;20.04;100.00
56270;BME280;42176;43.240;27.880;2023-07-31T01:53:06;99554.41;;;20.06;100.00
56270;BME280;42176;43.240;27.880;2023-07-31T01:55:07;99552.78;;;20.03;100.00
56270;BME280;42176;43.240;27.880;2023-07-31T01:57:07;99545.78;;;20.01;100.00
56270;BME280;42176;43.240;27.880;2023-07-31T01:59:08;99545.78;;;20.01;100.00
56270;BME280;42176;43.240;27.880;2023-07-31T02:01:09;99549.25;;;20.03;100.00
56270;BME280;42176;43.240;27.880;2023-07-31T02:03:10;99556.34;;;20.04;100.00
56270;BME280;42176;43.240;27.880;2023-07-31T02:05:11;99554.63;;;20.03;100.00
56270;BME280;42176;43.240;27.880;2023-07-31T02:07:11;99562.69;;;20.03;100.00
56270;BME280;42176;43.240;27.880;2023-07-31T02:09:11;99561.81;;;20.02;100.00
56270;BME280;42176;43.240;27.880;2023-07-31T02:11:12;99560.00;;;20.03;100.00
56270;BME280;42176;43.240;27.880;2023-07-31T02:13:12;99556.56;;;20.01;100.00
56270;BME280;42176;43.240;27.880;2023-07-31T02:15:13;99549.44;;;20.00;100.00
56270;BME280;42176;43.240;27.880;2023-07-31T02:17:13;99555.72;;;20.00;100.00
56270;BME280;42176;43.240;27.880;2023-07-31T02:19:14;99546.00;;;19.98;100.00
56270;BME280;42176;43.240;27.880;2023-07-31T02:21:14;99560.22;;;20.00;100.00
56270;BME280;42176;43.240;27.880;2023-07-31T02:23:15;99545.16;;;19.97;100.00
56270;BME280;42176;43.240;27.880;2023-07-31T02:25:15;99556.56;;;20.01;100.00
56270;BME280;42176;43.240;27.880;2023-07-31T02:27:15;99559.25;;;20.01;100.00
56270;BME280;42176;43.240;27.880;2023-07-31T02:29:16;99553.88;;;20.01;100.00
56270;BME280;42176;43.240;27.880;2023-07-31T02:31:16;99557.72;;;19.97;100.00
56270;BME280;42176;43.240;27.880;2023-07-31T02:33:17;99548.91;;;19.95;100.00
56270;BME280;42176;43.240;27.880;2023-07-31T02:35:17;99548.19;;;19.92;100.00
56270;BME280;42176;43.240;27.880;2023-07-31T02:37:18;99558.94;;;19.92;100.00
56270;BME280;42176;43.240;27.880;2023-07-31T02:39:19;99556.34;;;19.91;100.00
56270;BME280;42176;43.240;27.880;2023-07-31T02:41:19;99556.34;;;19.91;100.00
56270;BME280;42176;43.240;27.880;2023-07-31T02:43:19;99551.06;;;19.89;100.00
56270;BME280;42176;43.240;27.880;2023-07-31T02:45:20;99539.34;;;19.90;100.00
56270;BME280;42176;43.240;27.880;2023-07-31T02:47:21;99543.75;;;19.91;100.00
56270;BME280;42176;43.240;27.880;2023-07-31T02:49:21;99556.97;;;19.95;100.00
56270;BME280;42176;43.240;27.880;2023-07-31T02:51:22;99547.69;;;19.86;100.00
56270;BME280;42176;43.240;27.880;2023-07-31T02:53:22;99555.88;;;19.84;100.00
56270;BME280;42176;43.240;27.880;2023-07-31T02:55:23;99562.13;;;19.85;100.00
56270;BME280;42176;43.240;27.880;2023-07-31T02:57:24;99560.88;;;19.90;100.00
56270;BME280;42176;43.240;27.880;2023-07-31T02:59:24;99568.69;;;19.93;100.00
56270;BME280;42176;43.240;27.880;2023-07-31T03:01:25;99570.97;;;20.00;100.00
56270;BME280;42176;43.240;27.880;2023-07-31T03:03:25;99567.31;;;20.01;100.00
56270;BME280;42176;43.240;27.880;2023-07-31T03:05:26;99565.38;;;20.03;100.00
56270;BME280;42176;43.240;27.880;2023-07-31T03:07:26;99565.16;;;20.06;100.00
56270;BME280;42176;43.240;27.880;2023-07-31T03:09:27;99563.22;;;20.08;100.00
56270;BME280;42176;43.240;27.880;2023-07-31T03:11:27;99564.84;;;20.11;100.00
56270;BME280;42176;43.240;27.880;2023-07-31T03:13:28;99568.16;;;20.14;100.00
56270;BME280;42176;43.240;27.880;2023-07-31T03:15:28;99573.13;;;20.20;100.00
56270;BME280;42176;43.240;27.880;2023-07-31T03:17:29;99575.34;;;20.27;100.00
56270;BME280;42176;43.240;27.880;2023-07-31T03:19:31;99582.03;;;20.34;100.00
56270;BME280;42176;43.240;27.880;2023-07-31T03:21:32;99570.81;;;20.40;100.00
56270;BME280;42176;43.240;27.880;2023-07-31T03:23:32;99569.53;;;20.46;100.00
56270;BME280;42176;43.240;27.880;2023-07-31T03:25:32;99570.91;;;20.51;100.00
56270;BME280;42176;43.240;27.880;2023-07-31T03:27:33;99572.16;;;20.59;100.00
56270;BME280;42176;43.240;27.880;2023-07-31T03:29:33;99564.50;;;20.65;100.00
56270;BME280;42176;43.240;27.880;2023-07-31T03:31:34;99562.22;;;20.72;100.00
56270;BME280;42176;43.240;27.880;2023-07-31T03:33:34;99559.84;;;20.80;100.00
56270;BME280;42176;43.240;27.880;2023-07-31T03:35:35;99561.09;;;20.88;100.00
56270;BME280;42176;43.240;27.880;2023-07-31T03:37:35;99560.66;;;20.94;100.00
56270;BME280;42176;43.240;27.880;2023-07-31T03:39:35;99557.00;;;20.95;100.00
56270;BME280;42176;43.240;27.880;2023-07-31T03:41:36;99566.09;;;21.05;100.00
56270;BME280;42176;43.240;27.880;2023-07-31T03:43:36;99557.34;;;21.14;100.00
56270;BME280;42176;43.240;27.880;2023-07-31T03:45:37;99551.78;;;21.40;100.00
56270;BME280;42176;43.240;27.880;2023-07-31T03:47:37;99552.78;;;21.51;100.00
56270;BME280;42176;43.240;27.880;2023-07-31T03:49:38;99554.63;;;21.50;100.00
56270;BME280;42176;43.240;27.880;2023-07-31T03:51:38;99553.06;;;21.59;100.00
56270;BME280;42176;43.240;27.880;2023-07-31T03:53:38;99554.81;;;21.60;100.00
56270;BME280;42176;43.240;27.880;2023-07-31T03:55:39;99566.34;;;21.62;100.00
56270;BME280;42176;43.240;27.880;2023-07-31T03:57:39;99561.81;;;21.63;100.00
56270;BME280;42176;43.240;27.880;2023-07-31T03:59:40;99562.41;;;21.66;100.00
56270;BME280;42176;43.240;27.880;2023-07-31T04:01:40;99558.50;;;21.70;100.00
56270;BME280;42176;43.240;27.880;2023-07-31T04:03:41;99560.00;;;21.74;100.00
56270;BME280;42176;43.240;27.880;2023-07-31T04:05:41;99548.09;;;21.88;100.00
56270;BME280;42176;43.240;27.880;2023-07-31T04:07:42;99551.22;;;21.95;100.00
56270;BME280;42176;43.240;27.880;2023-07-31T04:09:42;99552.56;;;22.12;100.00
56270;BME280;42176;43.240;27.880;2023-07-31T04:11:42;99549.00;;;22.23;100.00
56270;BME280;42176;43.240;27.880;2023-07-31T04:13:43;99555.63;;;22.53;100.00
56270;BME280;42176;43.240;27.880;2023-07-31T04:15:48;99555.63;;;22.97;100.00
56270;BME280;42176;43.240;27.880;2023-07-31T04:17:49;99558.13;;;23.54;100.00
56270;BME280;42176;43.240;27.880;2023-07-31T04:19:50;99552.03;;;24.04;100.00
56270;BME280;42176;43.240;27.880;2023-07-31T04:21:50;99549.50;;;23.81;100.00
56270;BME280;42176;43.240;27.880;2023-07-31T04:23:50;99557.41;;;23.73;100.00
56270;BME280;42176;43.240;27.880;2023-07-31T04:25:56;99548.28;;;23.74;100.00
56270;BME280;42176;43.240;27.880;2023-07-31T04:27:56;99555.88;;;23.80;100.00
56270;BME280;42176;43.240;27.880;2023-07-31T04:29:56;99549.41;;;23.93;100.00
56270;BME280;42176;43.240;27.880;2023-07-31T04:31:57;99550.88;;;24.78;100.00
56270;BME280;42176;43.240;27.880;2023-07-31T04:33:57;99539.94;;;25.68;100.00
56270;BME280;42176;43.240;27.880;2023-07-31T04:36:00;99546.69;;;26.40;95.87
56270;BME280;42176;43.240;27.880;2023-07-31T04:38:00;99546.16;;;26.36;94.11
56270;BME280;42176;43.240;27.880;2023-07-31T04:40:01;99544.53;;;26.06;96.77
56270;BME280;42176;43.240;27.880;2023-07-31T04:42:01;99555.44;;;25.86;95.89
56270;BME280;42176;43.240;27.880;2023-07-31T04:44:02;99556.63;;;25.74;96.42
56270;BME280;42176;43.240;27.880;2023-07-31T04:46:04;99557.22;;;25.67;97.64
56270;BME280;42176;43.240;27.880;2023-07-31T04:48:04;99562.38;;;25.61;97.39
56270;BME280;42176;43.240;27.880;2023-07-31T04:50:05;99567.94;;;25.59;97.27
56270;BME280;42176;43.240;27.880;2023-07-31T04:52:06;99562.91;;;25.74;97.78
56270;BME280;42176;43.240;27.880;2023-07-31T04:54:06;99565.31;;;25.77;96.32
56270;BME280;42176;43.240;27.880;2023-07-31T04:56:07;99569.16;;;25.84;96.11
56270;BME280;42176;43.240;27.880;2023-07-31T04:58:07;99571.34;;;26.56;92.72
56270;BME280;42176;43.240;27.880;2023-07-31T05:00:08;99568.81;;;27.19;88.00
56270;BME280;42176;43.240;27.880;2023-07-31T05:02:12;99562.72;;;28.32;81.81
56270;BME280;42176;43.240;27.880;2023-07-31T05:04:14;99575.28;;;29.27;75.88
56270;BME280;42176;43.240;27.880;2023-07-31T05:06:15;99572.03;;;30.06;69.29
56270;BME280;42176;43.240;27.880;2023-07-31T05:08:16;99575.28;;;30.98;64.13
56270;BME280;42176;43.240;27.880;2023-07-31T05:10:17;99578.19;;;31.66;57.26
56270;BME280;42176;43.240;27.880;2023-07-31T05:12:18;99574.44;;;32.06;54.07
56270;BME280;42176;43.240;27.880;2023-07-31T05:14:18;99578.00;;;32.81;52.28
56270;BME280;42176;43.240;27.880;2023-07-31T05:16:18;99585.28;;;33.47;49.61
56270;BME280;42176;43.240;27.880;2023-07-31T05:18:19;99579.66;;;34.12;47.26
56270;BME280;42176;43.240;27.880;2023-07-31T05:20:20;99584.69;;;34.79;44.69
56270;BME280;42176;43.240;27.880;2023-07-31T05:22:23;99587.88;;;35.45;42.38
56270;BME280;42176;43.240;27.880;2023-07-31T05:24:23;99587.00;;;35.91;39.90
56270;BME280;42176;43.240;27.880;2023-07-31T05:26:24;99582.16;;;35.73;40.52
56270;BME280;42176;43.240;27.880;2023-07-31T05:28:24;99587.69;;;34.91;40.88
56270;BME280;42176;43.240;27.880;2023-07-31T05:30:25;99588.19;;;35.01;41.75
56270;BME280;42176;43.240;27.880;2023-07-31T05:32:25;99582.19;;;34.91;42.60
56270;BME280;42176;43.240;27.880;2023-07-31T05:34:26;99588.47;;;34.29;44.40
56270;BME280;42176;43.240;27.880;2023-07-31T05:36:26;99589.28;;;34.65;43.01
56270;BME280;42176;43.240;27.880;2023-07-31T05:38:26;99583.13;;;35.12;42.50
56270;BME280;42176;43.240;27.880;2023-07-31T05:40:27;99590.78;;;35.43;41.34
56270;BME280;42176;43.240;27.880;2023-07-31T05:42:27;99587.66;;;35.93;40.06
56270;BME280;42176;43.240;27.880;2023-07-31T05:44:28;99590.59;;;36.05;38.91
56270;BME280;42176;43.240;27.880;2023-07-31T05:46:28;99593.38;;;35.58;40.56
56270;BME280;42176;43.240;27.880;2023-07-31T05:48:29;99588.66;;;35.39;41.08
56270;BME280;42176;43.240;27.880;2023-07-31T05:50:30;99590.78;;;36.31;39.36
56270;BME280;42176;43.240;27.880;2023-07-31T05:52:30;99592.66;;;36.50;39.43
56270;BME280;42176;43.240;27.880;2023-07-31T05:54:32;99595.44;;;37.02;38.73
56270;BME280;42176;43.240;27.880;2023-07-31T05:56:32;99594.63;;;37.91;36.32
56270;BME280;42176;43.240;27.880;2023-07-31T05:58:34;99594.72;;;38.22;35.11
56270;BME280;42176;43.240;27.880;2023-07-31T06:00:34;99594.97;;;37.44;35.37
56270;BME280;42176;43.240;27.880;2023-07-31T06:02:35;99589.47;;;36.53;36.64
56270;BME280;42176;43.240;27.880;2023-07-31T06:04:36;99597.66;;;35.94;38.00
56270;BME280;42176;43.240;27.880;2023-07-31T06:06:37;99595.06;;;36.00;36.88
56270;BME280;42176;43.240;27.880;2023-07-31T06:08:38;99586.34;;;36.95;36.72
56270;BME280;42176;43.240;27.880;2023-07-31T06:10:38;99600.13;;;37.34;36.32
56270;BME280;42176;43.240;27.880;2023-07-31T06:12:39;99600.84;;;38.05;34.69
56270;BME280;42176;43.240;27.880;2023-07-31T06:14:39;99602.16;;;38.84;33.37
56270;BME280;42176;43.240;27.880;2023-07-31T06:16:40;99597.59;;;38.71;32.95
56270;BME280;42176;43.240;27.880;2023-07-31T06:18:41;99605.88;;;38.34;33.73
56270;BME280;42176;43.240;27.880;2023-07-31T06:20:41;99602.88;;;38.17;33.62
56270;BME280;42176;43.240;27.880;2023-07-31T06:22:42;99608.75;;;38.64;32.38
56270;BME280;42176;43.240;27.880;2023-07-31T06:24:43;99607.06;;;39.43;32.18
56270;BME280;42176;43.240;27.880;2023-07-31T06:26:43;99610.34;;;39.94;31.60
56270;BME280;42176;43.240;27.880;2023-07-31T06:28:43;99616.25;;;39.55;31.95
56270;BME280;42176;43.240;27.880;2023-07-31T06:30:44;99619.91;;;38.58;33.33
56270;BME280;42176;43.240;27.880;2023-07-31T06:32:44;99622.19;;;37.47;35.13
56270;BME280;42176;43.240;27.880;2023-07-31T06:34:45;99621.97;;;36.51;36.08
56270;BME280;42176;43.240;27.880;2023-07-31T06:36:45;99625.41;;;36.13;36.05
56270;BME280;42176;43.240;27.880;2023-07-31T06:38:45;99623.50;;;35.80;36.76
56270;BME280;42176;43.240;27.880;2023-07-31T06:40:46;99623.47;;;35.66;37.70
56270;BME280;42176;43.240;27.880;2023-07-31T06:42:46;99620.53;;;35.55;37.59
56270;BME280;42176;43.240;27.880;2023-07-31T06:44:47;99620.53;;;35.55;37.43
56270;BME280;42176;43.240;27.880;2023-07-31T06:46:47;99612.44;;;35.60;37.37
56270;BME280;42176;43.240;27.880;2023-07-31T06:48:48;99622.63;;;36.26;36.51
56270;BME280;42176;43.240;27.880;2023-07-31T06:50:48;99619.03;;;36.19;36.03
56270;BME280;42176;43.240;27.880;2023-07-31T06:52:48;99617.88;;;36.61;35.33
56270;BME280;42176;43.240;27.880;2023-07-31T06:55:21;99616.94;;;36.87;35.76
56270;BME280;42176;43.240;27.880;2023-07-31T06:57:22;99613.03;;;37.72;33.78
56270;BME280;42176;43.240;27.880;2023-07-31T06:59:22;99621.63;;;37.64;33.25
56270;BME280;42176;43.240;27.880;2023-07-31T07:30:09;99611.38;;;34.85;36.23
56270;BME280;42176;43.240;27.880;2023-07-31T07:32:10;99614.75;;;34.81;36.09
56270;BME280;42176;43.240;27.880;2023-07-31T07:34:12;99615.34;;;35.18;35.22
56270;BME280;42176;43.240;27.880;2023-07-31T07:36:12;99608.28;;;34.95;35.91
56270;BME280;42176;43.240;27.880;2023-07-31T07:38:14;99611.59;;;35.46;35.68
56270;BME280;42176;43.240;27.880;2023-07-31T07:40:20;99610.75;;;37.30;33.18
56270;BME280;42176;43.240;27.880;2023-07-31T07:42:20;99606.06;;;36.47;33.60
56270;BME280;42176;43.240;27.880;2023-07-31T07:44:20;99612.16;;;37.14;33.05
56270;BME280;42176;43.240;27.880;2023-07-31T07:46:21;99610.22;;;36.63;33.75
56270;BME280;42176;43.240;27.880;2023-07-31T07:48:22;99617.50;;;36.50;34.16
56270;BME280;42176;43.240;27.880;2023-07-31T07:50:22;99613.66;;;37.10;33.59
56270;BME280;42176;43.240;27.880;2023-07-31T07:52:23;99609.06;;;35.91;35.41
56270;BME280;42176;43.240;27.880;2023-07-31T07:54:23;99616.72;;;36.03;34.53
56270;BME280;42176;43.240;27.880;2023-07-31T07:56:25;99613.09;;;37.66;32.31
56270;BME280;42176;43.240;27.880;2023-07-31T07:58:26;99613.47;;;37.69;31.61
56270;BME280;42176;43.240;27.880;2023-07-31T08:00:26;99611.50;;;38.64;30.01
56270;BME280;42176;43.240;27.880;2023-07-31T08:02:27;99609.91;;;39.67;28.97
56270;BME280;42176;43.240;27.880;2023-07-31T08:04:28;99617.31;;;40.32;27.32
56270;BME280;42176;43.240;27.880;2023-07-31T08:06:29;99612.97;;;39.77;28.16
56270;BME280;42176;43.240;27.880;2023-07-31T08:08:30;99619.34;;;38.30;29.85
56270;BME280;42176;43.240;27.880;2023-07-31T08:10:30;99614.28;;;38.64;29.84
56270;BME280;42176;43.240;27.880;2023-07-31T08:12:31;99608.06;;;39.18;28.84
56270;BME280;42176;43.240;27.880;2023-07-31T08:14:31;99619.81;;;38.27;29.74
56270;BME280;42176;43.240;27.880;2023-07-31T08:16:32;99612.00;;;37.41;31.78
56270;BME280;42176;43.240;27.880;2023-07-31T08:18:32;99617.19;;;39.07;29.50
56270;BME280;42176;43.240;27.880;2023-07-31T08:20:33;99615.53;;;38.68;30.03
56270;BME280;42176;43.240;27.880;2023-07-31T08:22:33;99617.97;;;37.96;30.80
56270;BME280;42176;43.240;27.880;2023-07-31T08:24:34;99620.97;;;37.94;30.81
56270;BME280;42176;43.240;27.880;2023-07-31T08:26:34;99615.16;;;37.13;31.71
56270;BME280;42176;43.240;27.880;2023-07-31T08:28:34;99615.19;;;37.06;32.30
56270;BME280;42176;43.240;27.880;2023-07-31T08:30:36;99611.44;;;37.58;31.67
56270;BME280;42176;43.240;27.880;2023-07-31T08:32:37;99626.75;;;38.11;30.75
56270;BME280;42176;43.240;27.880;2023-07-31T08:34:37;99615.63;;;37.03;31.48
56270;BME280;42176;43.240;27.880;2023-07-31T08:36:38;99619.16;;;36.65;32.44
56270;BME280;42176;43.240;27.880;2023-07-31T08:38:38;99622.22;;;36.16;33.31
56270;BME280;42176;43.240;27.880;2023-07-31T08:40:39;99614.31;;;36.40;32.49
56270;BME280;42176;43.240;27.880;2023-07-31T08:42:46;99616.50;;;36.11;33.87
56270;BME280;42176;43.240;27.880;2023-07-31T08:44:48;99618.41;;;35.77;33.90
56270;BME280;42176;43.240;27.880;2023-07-31T08:46:49;99620.06;;;35.51;34.40
56270;BME280;42176;43.240;27.880;2023-07-31T08:48:51;99616.66;;;35.42;34.91
56270;BME280;42176;43.240;27.880;2023-07-31T08:50:53;99609.97;;;34.96;35.42
56270;BME280;42176;43.240;27.880;2023-07-31T08:52:53;99616.25;;;35.45;34.76
56270;BME280;42176;43.240;27.880;2023-07-31T08:54:54;99621.03;;;34.68;35.17
56270;BME280;42176;43.240;27.880;2023-07-31T08:56:54;99618.88;;;33.93;36.21
56270;BME280;42176;43.240;27.880;2023-07-31T08:58:57;99625.00;;;33.30;37.70
56270;BME280;42176;43.240;27.880;2023-07-31T09:01:01;99625.88;;;32.93;38.40
56270;BME280;42176;43.240;27.880;2023-07-31T09:03:03;99615.06;;;32.77;39.39
56270;BME280;42176;43.240;27.880;2023-07-31T09:05:06;99622.28;;;32.48;39.59
56270;BME280;42176;43.240;27.880;2023-07-31T09:07:08;99620.69;;;32.39;40.17
56270;BME280;42176;43.240;27.880;2023-07-31T09:09:09;99631.94;;;32.44;40.64
56270;BME280;42176;43.240;27.880;2023-07-31T09:11:10;99624.84;;;32.34;40.21
56270;BME280;42176;43.240;27.880;2023-07-31T09:13:10;99636.78;;;32.03;41.02
56270;BME280;42176;43.240;27.880;2023-07-31T09:15:11;99632.56;;;31.78;41.29
56270;BME280;42176;43.240;27.880;2023-07-31T09:17:11;99633.28;;;31.25;42.41
56270;BME280;42176;43.240;27.880;2023-07-31T09:19:12;99632.03;;;30.64;43.71
56270;BME280;42176;43.240;27.880;2023-07-31T09:21:12;99635.31;;;30.43;44.89
56270;BME280;42176;43.240;27.880;2023-07-31T09:23:13;99642.53;;;30.28;45.24
56270;BME280;42176;43.240;27.880;2023-07-31T09:27:18;99646.00;;;29.97;47.65
56270;BME280;42176;43.240;27.880;2023-07-31T09:29:19;99636.81;;;30.62;46.38
56270;BME280;42176;43.240;27.880;2023-07-31T09:31:40;99643.53;;;31.78;43.61
56270;BME280;42176;43.240;27.880;2023-07-31T09:33:56;99642.84;;;32.14;41.99
56270;BME280;42176;43.240;27.880;2023-07-31T09:35:58;99636.59;;;31.90;44.25
56270;BME280;42176;43.240;27.880;2023-07-31T09:38:10;99639.13;;;31.68;43.54
56270;BME280;42176;43.240;27.880;2023-07-31T09:40:25;99643.81;;;31.83;44.47
56270;BME280;42176;43.240;27.880;2023-07-31T09:42:26;99627.91;;;32.01;43.13
56270;BME280;42176;43.240;27.880;2023-07-31T09:44:40;99641.56;;;32.40;42.43
56270;BME280;42176;43.240;27.880;2023-07-31T09:46:41;99636.09;;;33.21;40.53
56270;BME280;42176;43.240;27.880;2023-07-31T09:48:43;99634.47;;;33.42;41.41
56270;BME280;42176;43.240;27.880;2023-07-31T09:50:45;99634.06;;;32.78;42.08
56270;BME280;42176;43.240;27.880;2023-07-31T09:52:46;99630.59;;;32.40;42.08
56270;BME280;42176;43.240;27.880;2023-07-31T09:54:47;99629.81;;;32.16;41.11
56270;BME280;42176;43.240;27.880;2023-07-31T09:56:49;99637.91;;;32.32;41.29
56270;BME280;42176;43.240;27.880;2023-07-31T09:58:50;99627.38;;;32.21;41.91
56270;BME280;42176;43.240;27.880;2023-07-31T10:00:50;99636.84;;;32.33;41.68
56270;BME280;42176;43.240;27.880;2023-07-31T10:02:52;99621.03;;;32.20;41.23
56270;BME280;42176;43.240;27.880;2023-07-31T10:04:56;99631.63;;;31.70;43.85
56270;BME280;42176;43.240;27.880;2023-07-31T10:07:00;99623.53;;;31.46;43.56
56270;BME280;42176;43.240;27.880;2023-07-31T10:09:10;99637.97;;;31.39;44.08
56270;BME280;42176;43.240;27.880;2023-07-31T10:11:12;99626.16;;;31.62;43.44
56270;BME280;42176;43.240;27.880;2023-07-31T10:13:14;99632.41;;;31.94;42.71
56270;BME280;42176;43.240;27.880;2023-07-31T10:15:16;99634.72;;;32.06;42.05
56270;BME280;42176;43.240;27.880;2023-07-31T10:17:17;99626.13;;;31.70;43.40
56270;BME280;42176;43.240;27.880;2023-07-31T10:19:19;99608.91;;;31.38;42.55
56270;BME280;42176;43.240;27.880;2023-07-31T10:21:20;99633.06;;;31.58;43.57
56270;BME280;42176;43.240;27.880;2023-07-31T10:23:22;99637.16;;;32.00;42.56
56270;BME280;42176;43.240;27.880;2023-07-31T10:25:24;99633.22;;;32.18;41.79
56270;BME280;42176;43.240;27.880;2023-07-31T10:27:26;99640.94;;;32.38;41.65
56270;BME280;42176;43.240;27.880;2023-07-31T10:29:28;99632.78;;;32.59;40.68
56270;BME280;42176;43.240;27.880;2023-07-31T10:31:30;99627.22;;;33.19;39.65
56270;BME280;42176;43.240;27.880;2023-07-31T10:33:31;99632.00;;;33.47;38.80
56270;BME280;42176;43.240;27.880;2023-07-31T10:35:31;99639.44;;;33.75;38.26
56270;BME280;42176;43.240;27.880;2023-07-31T10:37:40;99634.06;;;33.89;37.71
56270;BME280;42176;43.240;27.880;2023-07-31T10:39:40;99640.72;;;33.36;39.29
56270;BME280;42176;43.240;27.880;2023-07-31T10:41:41;99632.63;;;33.13;39.83
56270;BME280;42176;43.240;27.880;2023-07-31T10:43:41;99628.72;;;32.85;39.79
56270;BME280;42176;43.240;27.880;2023-07-31T10:45:42;99622.66;;;32.45;41.02
56270;BME280;42176;43.240;27.880;2023-07-31T10:47:44;99633.81;;;32.28;42.05
56270;BME280;42176;43.240;27.880;2023-07-31T10:49:46;99630.41;;;32.26;41.56
56270;BME280;42176;43.240;27.880;2023-07-31T10:51:47;99636.44;;;32.07;42.54
56270;BME280;42176;43.240;27.880;2023-07-31T10:53:48;99626.41;;;32.14;41.45
56270;BME280;42176;43.240;27.880;2023-07-31T10:55:48;99623.97;;;32.19;42.06
56270;BME280;42176;43.240;27.880;2023-07-31T10:57:52;99626.63;;;32.57;41.42
56270;BME280;42176;43.240;27.880;2023-07-31T11:00:19;99621.34;;;32.41;40.66
56270;BME280;42176;43.240;27.880;2023-07-31T11:02:26;99612.78;;;32.06;42.06
56270;BME280;42176;43.240;27.880;2023-07-31T11:04:29;99626.13;;;31.70;42.39
56270;BME280;42176;43.240;27.880;2023-07-31T11:06:32;99616.97;;;31.55;42.77
56270;BME280;42176;43.240;27.880;2023-07-31T11:08:34;99627.53;;;31.11;43.58
56270;BME280;42176;43.240;27.880;2023-07-31T11:10:35;99624.66;;;31.36;43.32
56270;BME280;42176;43.240;27.880;2023-07-31T11:12:35;99624.16;;;31.33;42.51
56270;BME280;42176;43.240;27.880;2023-07-31T11:14:36;99626.94;;;31.48;43.29